Pagina principală
METAR-TAF:

METAR-TAF

Aeroporturi :

Grant County Airport

Silver City, New Mexico, Statele Unite ale Americii

Latitudine: 32-38N, longitudine: 108-09W, elevație: 1659 m

Observații meteo curente

Raportul a fost făcut în urmă cu 42 de minute, la 22:55 UTC
Vânt 10 kt de la Nord-est
Temperatură 29°C
Umiditate 31%
Presiune 1024 hPa
Vizibilitate: 16.1 km
Nori împrăștiați la o înălțime de 12000 picior

METAR: KSVC 182255Z AUTO 04010KT 10SM SCT120 29/10 A3023 RMK AO2 LTG DSNT W T02940102

Ora: 17:37 (23:37 UTC)


TAF: lipsă

Observații și prognoze meteo pentru peste 4.000 de aeroporturi (rapoarte METAR și TAF).

Stațiile disponibile sunt reprezentate pe hartă prin puncte galbene și roșii.

Țineți indicatorul mouse-ului pe punctul dorit pentru a vedea denumirea stației.

Apoi, faceți clic pentru a vedea observațiile și prognozele meteorologice.

Pentru a schimba harta: Pentru mărire, faceți clic pe butoanele verzi cu cruce neagră; pentru micșorare, pe butonul verde cu o liniuță; pentru hărți învecinate, pe săgețile verzi.


METAR-TAF: